sensor_id;sensor_type;location;lat;lon;timestamp;temperature;humidity
44517;DHT22;30223;17.182;-96.766;2023-07-02T00:02:17;25.50;65.80
44517;DHT22;30223;17.182;-96.766;2023-07-02T00:04:45;25.50;65.60
44517;DHT22;30223;17.182;-96.766;2023-07-02T00:07:12;25.60;67.60
44517;DHT22;30223;17.182;-96.766;2023-07-02T00:09:39;25.60;68.60
44517;DHT22;30223;17.182;-96.766;2023-07-02T00:12:06;25.70;68.50
44517;DHT22;30223;17.182;-96.766;2023-07-02T00:14:33;25.70;68.20
44517;DHT22;30223;17.182;-96.766;2023-07-02T00:17:00;25.70;68.60
44517;DHT22;30223;17.182;-96.766;2023-07-02T00:19:27;25.70;67.80
44517;DHT22;30223;17.182;-96.766;2023-07-02T00:21:53;25.70;66.80
44517;DHT22;30223;17.182;-96.766;2023-07-02T00:24:21;25.70;67.40
44517;DHT22;30223;17.182;-96.766;2023-07-02T00:26:48;25.70;67.20
44517;DHT22;30223;17.182;-96.766;2023-07-02T00:29:15;25.70;66.70
44517;DHT22;30223;17.182;-96.766;2023-07-02T00:31:41;25.70;66.60
44517;DHT22;30223;17.182;-96.766;2023-07-02T00:34:08;25.70;65.90
44517;DHT22;30223;17.182;-96.766;2023-07-02T00:36:35;25.60;66.50
44517;DHT22;30223;17.182;-96.766;2023-07-02T00:39:02;25.60;65.90
44517;DHT22;30223;17.182;-96.766;2023-07-02T00:41:28;25.50;66.20
44517;DHT22;30223;17.182;-96.766;2023-07-02T00:43:56;25.50;66.30
44517;DHT22;30223;17.182;-96.766;2023-07-02T00:46:27;25.50;65.40
44517;DHT22;30223;17.182;-96.766;2023-07-02T00:48:55;25.50;65.40
44517;DHT22;30223;17.182;-96.766;2023-07-02T00:51:23;25.50;65.60
44517;DHT22;30223;17.182;-96.766;2023-07-02T00:53:53;25.50;65.90
44517;DHT22;30223;17.182;-96.766;2023-07-02T00:56:22;25.50;66.10
44517;DHT22;30223;17.182;-96.766;2023-07-02T00:58:50;25.50;66.50
44517;DHT22;30223;17.182;-96.766;2023-07-02T01:01:21;25.40;66.10
44517;DHT22;30223;17.182;-96.766;2023-07-02T01:03:58;25.50;66.30
44517;DHT22;30223;17.182;-96.766;2023-07-02T01:06:36;25.40;66.30
44517;DHT22;30223;17.182;-96.766;2023-07-02T01:09:06;25.50;66.50
44517;DHT22;30223;17.182;-96.766;2023-07-02T01:11:48;25.50;66.60
44517;DHT22;30223;17.182;-96.766;2023-07-02T01:14:50;25.40;66.40
44517;DHT22;30223;17.182;-96.766;2023-07-02T01:17:17;25.40;66.40
44517;DHT22;30223;17.182;-96.766;2023-07-02T01:22:23;25.40;66.40
44517;DHT22;30223;17.182;-96.766;2023-07-02T01:24:51;25.40;66.20
44517;DHT22;30223;17.182;-96.766;2023-07-02T01:27:19;25.30;66.10
44517;DHT22;30223;17.182;-96.766;2023-07-02T01:29:47;25.40;66.00
44517;DHT22;30223;17.182;-96.766;2023-07-02T01:32:16;25.30;66.10
44517;DHT22;30223;17.182;-96.766;2023-07-02T01:34:43;25.30;65.90
44517;DHT22;30223;17.182;-96.766;2023-07-02T01:37:15;25.30;65.90
44517;DHT22;30223;17.182;-96.766;2023-07-02T01:39:45;25.30;65.60
44517;DHT22;30223;17.182;-96.766;2023-07-02T01:42:14;25.40;66.40
44517;DHT22;30223;17.182;-96.766;2023-07-02T01:44:47;25.40;65.50
44517;DHT22;30223;17.182;-96.766;2023-07-02T01:47:14;25.40;64.80
44517;DHT22;30223;17.182;-96.766;2023-07-02T01:49:42;25.40;65.00
44517;DHT22;30223;17.182;-96.766;2023-07-02T01:52:08;25.50;64.90
44517;DHT22;30223;17.182;-96.766;2023-07-02T01:54:35;25.50;64.90
44517;DHT22;30223;17.182;-96.766;2023-07-02T01:57:03;25.40;65.20
44517;DHT22;30223;17.182;-96.766;2023-07-02T01:59:30;25.40;65.00
44517;DHT22;30223;17.182;-96.766;2023-07-02T02:01:57;25.40;65.00
44517;DHT22;30223;17.182;-96.766;2023-07-02T02:04:24;25.40;64.80
44517;DHT22;30223;17.182;-96.766;2023-07-02T02:06:50;25.40;64.40
44517;DHT22;30223;17.182;-96.766;2023-07-02T02:09:18;25.30;64.30
44517;DHT22;30223;17.182;-96.766;2023-07-02T02:11:48;25.30;63.90
44517;DHT22;30223;17.182;-96.766;2023-07-02T02:14:15;25.30;63.70
44517;DHT22;30223;17.182;-96.766;2023-07-02T02:16:43;25.30;63.40
44517;DHT22;30223;17.182;-96.766;2023-07-02T02:19:13;25.20;63.10
44517;DHT22;30223;17.182;-96.766;2023-07-02T02:21:43;25.20;63.00
44517;DHT22;30223;17.182;-96.766;2023-07-02T02:24:10;25.10;63.30
44517;DHT22;30223;17.182;-96.766;2023-07-02T02:26:38;25.10;63.70
44517;DHT22;30223;17.182;-96.766;2023-07-02T02:29:05;25.10;64.00
44517;DHT22;30223;17.182;-96.766;2023-07-02T02:31:32;25.10;63.60
44517;DHT22;30223;17.182;-96.766;2023-07-02T02:33:59;25.10;63.20
44517;DHT22;30223;17.182;-96.766;2023-07-02T02:36:25;25.10;63.20
44517;DHT22;30223;17.182;-96.766;2023-07-02T02:38:52;25.00;62.90
44517;DHT22;30223;17.182;-96.766;2023-07-02T02:41:19;25.00;62.70
44517;DHT22;30223;17.182;-96.766;2023-07-02T02:43:47;24.90;62.90
44517;DHT22;30223;17.182;-96.766;2023-07-02T02:46:22;24.80;62.70
44517;DHT22;30223;17.182;-96.766;2023-07-02T02:48:50;24.80;62.80
44517;DHT22;30223;17.182;-96.766;2023-07-02T02:51:20;24.70;63.00
44517;DHT22;30223;17.182;-96.766;2023-07-02T02:53:46;24.60;63.20
44517;DHT22;30223;17.182;-96.766;2023-07-02T02:56:13;24.60;63.40
44517;DHT22;30223;17.182;-96.766;2023-07-02T02:58:40;24.50;63.60
44517;DHT22;30223;17.182;-96.766;2023-07-02T03:01:07;24.50;63.70
44517;DHT22;30223;17.182;-96.766;2023-07-02T03:03:40;24.50;63.80
44517;DHT22;30223;17.182;-96.766;2023-07-02T03:06:12;24.50;63.80
44517;DHT22;30223;17.182;-96.766;2023-07-02T03:08:39;24.30;64.10
44517;DHT22;30223;17.182;-96.766;2023-07-02T03:11:06;24.20;64.40
44517;DHT22;30223;17.182;-96.766;2023-07-02T03:13:33;24.20;64.80
44517;DHT22;30223;17.182;-96.766;2023-07-02T03:16:00;24.20;64.90
44517;DHT22;30223;17.182;-96.766;2023-07-02T03:18:27;24.10;65.10
44517;DHT22;30223;17.182;-96.766;2023-07-02T03:20:53;24.10;65.50
44517;DHT22;30223;17.182;-96.766;2023-07-02T03:23:20;23.90;65.50
44517;DHT22;30223;17.182;-96.766;2023-07-02T03:25:47;23.90;65.60
44517;DHT22;30223;17.182;-96.766;2023-07-02T03:28:14;23.90;65.80
44517;DHT22;30223;17.182;-96.766;2023-07-02T03:30:40;23.80;65.90
44517;DHT22;30223;17.182;-96.766;2023-07-02T03:33:09;23.70;66.00
44517;DHT22;30223;17.182;-96.766;2023-07-02T03:35:36;23.70;66.20
44517;DHT22;30223;17.182;-96.766;2023-07-02T03:38:04;23.70;66.80
44517;DHT22;30223;17.182;-96.766;2023-07-02T03:40:32;23.60;66.50
44517;DHT22;30223;17.182;-96.766;2023-07-02T03:42:59;23.70;66.50
44517;DHT22;30223;17.182;-96.766;2023-07-02T03:45:25;23.70;66.30
44517;DHT22;30223;17.182;-96.766;2023-07-02T03:47:52;23.80;66.20
44517;DHT22;30223;17.182;-96.766;2023-07-02T03:50:19;23.80;66.30
44517;DHT22;30223;17.182;-96.766;2023-07-02T03:52:46;23.80;66.20
44517;DHT22;30223;17.182;-96.766;2023-07-02T03:55:13;23.70;66.20
44517;DHT22;30223;17.182;-96.766;2023-07-02T03:57:39;23.70;66.20
44517;DHT22;30223;17.182;-96.766;2023-07-02T04:00:07;23.70;66.30
44517;DHT22;30223;17.182;-96.766;2023-07-02T04:02:36;23.70;66.20
44517;DHT22;30223;17.182;-96.766;2023-07-02T04:05:03;23.70;66.20
44517;DHT22;30223;17.182;-96.766;2023-07-02T04:07:29;23.60;66.20
44517;DHT22;30223;17.182;-96.766;2023-07-02T04:09:56;23.50;66.20
44517;DHT22;30223;17.182;-96.766;2023-07-02T04:12:23;23.60;66.50
44517;DHT22;30223;17.182;-96.766;2023-07-02T04:14:50;23.50;66.30
44517;DHT22;30223;17.182;-96.766;2023-07-02T04:17:16;23.60;66.20
44517;DHT22;30223;17.182;-96.766;2023-07-02T04:19:43;23.50;66.20
44517;DHT22;30223;17.182;-96.766;2023-07-02T04:22:10;23.60;66.30
44517;DHT22;30223;17.182;-96.766;2023-07-02T04:24:37;23.60;66.30
44517;DHT22;30223;17.182;-96.766;2023-07-02T04:27:03;23.70;66.20
44517;DHT22;30223;17.182;-96.766;2023-07-02T04:29:30;23.70;66.20
44517;DHT22;30223;17.182;-96.766;2023-07-02T04:31:57;23.80;66.10
44517;DHT22;30223;17.182;-96.766;2023-07-02T04:34:24;23.80;66.10
44517;DHT22;30223;17.182;-96.766;2023-07-02T04:36:50;23.90;66.40
44517;DHT22;30223;17.182;-96.766;2023-07-02T04:39:17;23.90;66.30
44517;DHT22;30223;17.182;-96.766;2023-07-02T04:41:44;24.00;66.40
44517;DHT22;30223;17.182;-96.766;2023-07-02T04:44:11;24.00;66.30
44517;DHT22;30223;17.182;-96.766;2023-07-02T04:46:37;24.10;66.20
44517;DHT22;30223;17.182;-96.766;2023-07-02T04:49:04;24.20;65.80
44517;DHT22;30223;17.182;-96.766;2023-07-02T04:51:31;24.20;65.80
44517;DHT22;30223;17.182;-96.766;2023-07-02T04:53:58;24.30;65.50
44517;DHT22;30223;17.182;-96.766;2023-07-02T04:56:25;24.30;65.10
44517;DHT22;30223;17.182;-96.766;2023-07-02T04:58:52;24.30;65.40
44517;DHT22;30223;17.182;-96.766;2023-07-02T05:01:18;24.20;65.10
44517;DHT22;30223;17.182;-96.766;2023-07-02T05:03:46;24.30;65.20
44517;DHT22;30223;17.182;-96.766;2023-07-02T05:06:15;24.30;65.10
44517;DHT22;30223;17.182;-96.766;2023-07-02T05:08:42;24.30;65.00
44517;DHT22;30223;17.182;-96.766;2023-07-02T05:11:10;24.30;64.90
44517;DHT22;30223;17.182;-96.766;2023-07-02T05:13:37;24.30;64.70
44517;DHT22;30223;17.182;-96.766;2023-07-02T05:16:04;24.30;64.90
44517;DHT22;30223;17.182;-96.766;2023-07-02T05:18:30;24.30;64.80
44517;DHT22;30223;17.182;-96.766;2023-07-02T05:20:57;24.20;64.60
44517;DHT22;30223;17.182;-96.766;2023-07-02T05:23:24;24.20;64.40
44517;DHT22;30223;17.182;-96.766;2023-07-02T05:25:50;24.20;64.40
44517;DHT22;30223;17.182;-96.766;2023-07-02T05:28:17;24.20;64.60
44517;DHT22;30223;17.182;-96.766;2023-07-02T05:30:44;24.20;64.60
44517;DHT22;30223;17.182;-96.766;2023-07-02T05:33:11;24.20;64.60
44517;DHT22;30223;17.182;-96.766;2023-07-02T05:35:38;24.30;64.70
44517;DHT22;30223;17.182;-96.766;2023-07-02T05:38:05;24.20;64.70
44517;DHT22;30223;17.182;-96.766;2023-07-02T05:40:32;24.20;64.80
44517;DHT22;30223;17.182;-96.766;2023-07-02T05:42:58;24.20;64.80
44517;DHT22;30223;17.182;-96.766;2023-07-02T05:45:25;24.20;64.70
44517;DHT22;30223;17.182;-96.766;2023-07-02T05:47:53;24.20;64.60
44517;DHT22;30223;17.182;-96.766;2023-07-02T05:50:20;24.20;64.50
44517;DHT22;30223;17.182;-96.766;2023-07-02T05:52:47;24.20;64.40
44517;DHT22;30223;17.182;-96.766;2023-07-02T05:55:13;24.20;64.40
44517;DHT22;30223;17.182;-96.766;2023-07-02T05:57:40;24.20;64.30
44517;DHT22;30223;17.182;-96.766;2023-07-02T06:00:07;24.10;64.20
44517;DHT22;30223;17.182;-96.766;2023-07-02T06:02:34;24.20;64.70
44517;DHT22;30223;17.182;-96.766;2023-07-02T06:05:01;24.10;64.80
44517;DHT22;30223;17.182;-96.766;2023-07-02T06:07:28;24.10;64.80
44517;DHT22;30223;17.182;-96.766;2023-07-02T06:09:55;24.10;64.70
44517;DHT22;30223;17.182;-96.766;2023-07-02T06:12:22;24.00;64.40
44517;DHT22;30223;17.182;-96.766;2023-07-02T06:14:49;24.00;64.40
44517;DHT22;30223;17.182;-96.766;2023-07-02T06:17:16;24.00;64.40
44517;DHT22;30223;17.182;-96.766;2023-07-02T06:19:44;24.00;64.50
44517;DHT22;30223;17.182;-96.766;2023-07-02T06:22:11;24.00;64.60
44517;DHT22;30223;17.182;-96.766;2023-07-02T06:24:37;23.90;64.30
44517;DHT22;30223;17.182;-96.766;2023-07-02T06:27:04;24.00;64.50
44517;DHT22;30223;17.182;-96.766;2023-07-02T06:29:31;23.90;64.60
44517;DHT22;30223;17.182;-96.766;2023-07-02T06:31:58;23.90;64.80
44517;DHT22;30223;17.182;-96.766;2023-07-02T06:34:25;23.90;64.80
44517;DHT22;30223;17.182;-96.766;2023-07-02T06:36:51;23.90;64.80
44517;DHT22;30223;17.182;-96.766;2023-07-02T06:39:18;23.90;64.60
44517;DHT22;30223;17.182;-96.766;2023-07-02T06:41:45;23.80;64.50
44517;DHT22;30223;17.182;-96.766;2023-07-02T06:44:12;23.80;64.50
44517;DHT22;30223;17.182;-96.766;2023-07-02T06:46:38;23.90;64.50
44517;DHT22;30223;17.182;-96.766;2023-07-02T06:49:05;23.80;64.50
44517;DHT22;30223;17.182;-96.766;2023-07-02T06:51:32;23.80;64.60
44517;DHT22;30223;17.182;-96.766;2023-07-02T06:54:00;23.80;64.70
44517;DHT22;30223;17.182;-96.766;2023-07-02T06:56:27;23.80;64.60
44517;DHT22;30223;17.182;-96.766;2023-07-02T06:58:53;23.80;64.70
44517;DHT22;30223;17.182;-96.766;2023-07-02T07:01:20;23.80;64.40
44517;DHT22;30223;17.182;-96.766;2023-07-02T07:03:47;23.80;64.40
44517;DHT22;30223;17.182;-96.766;2023-07-02T07:06:14;23.80;64.40
44517;DHT22;30223;17.182;-96.766;2023-07-02T07:08:41;23.80;64.30
44517;DHT22;30223;17.182;-96.766;2023-07-02T07:11:08;23.70;64.30
44517;DHT22;30223;17.182;-96.766;2023-07-02T07:13:35;23.70;64.30
44517;DHT22;30223;17.182;-96.766;2023-07-02T07:16:01;23.70;64.20
44517;DHT22;30223;17.182;-96.766;2023-07-02T07:18:28;23.70;64.40
44517;DHT22;30223;17.182;-96.766;2023-07-02T07:20:55;23.70;64.20
44517;DHT22;30223;17.182;-96.766;2023-07-02T07:23:22;23.70;64.20
44517;DHT22;30223;17.182;-96.766;2023-07-02T07:25:48;23.70;64.20
44517;DHT22;30223;17.182;-96.766;2023-07-02T07:28:15;23.60;64.40
44517;DHT22;30223;17.182;-96.766;2023-07-02T07:30:43;23.70;65.00
44517;DHT22;30223;17.182;-96.766;2023-07-02T07:33:10;23.60;64.70
44517;DHT22;30223;17.182;-96.766;2023-07-02T07:35:37;23.60;64.80
44517;DHT22;30223;17.182;-96.766;2023-07-02T07:38:04;23.60;64.70
44517;DHT22;30223;17.182;-96.766;2023-07-02T07:40:30;23.60;64.50
44517;DHT22;30223;17.182;-96.766;2023-07-02T07:42:57;23.60;64.50
44517;DHT22;30223;17.182;-96.766;2023-07-02T07:45:24;23.60;64.40
44517;DHT22;30223;17.182;-96.766;2023-07-02T07:47:51;23.60;64.30
44517;DHT22;30223;17.182;-96.766;2023-07-02T07:50:17;23.60;64.40
44517;DHT22;30223;17.182;-96.766;2023-07-02T07:52:44;23.50;64.10
44517;DHT22;30223;17.182;-96.766;2023-07-02T07:55:11;23.50;64.20
44517;DHT22;30223;17.182;-96.766;2023-07-02T07:57:38;23.50;64.20
44517;DHT22;30223;17.182;-96.766;2023-07-02T08:00:05;23.50;64.40
44517;DHT22;30223;17.182;-96.766;2023-07-02T08:02:38;23.50;64.30
44517;DHT22;30223;17.182;-96.766;2023-07-02T08:05:07;23.50;64.50
44517;DHT22;30223;17.182;-96.766;2023-07-02T08:07:34;23.50;64.60
44517;DHT22;30223;17.182;-96.766;2023-07-02T08:10:01;23.40;64.40
44517;DHT22;30223;17.182;-96.766;2023-07-02T08:12:28;23.40;64.30
44517;DHT22;30223;17.182;-96.766;2023-07-02T08:14:58;23.40;64.30
44517;DHT22;30223;17.182;-96.766;2023-07-02T08:17:24;23.50;64.20
44517;DHT22;30223;17.182;-96.766;2023-07-02T08:19:51;23.40;64.10
44517;DHT22;30223;17.182;-96.766;2023-07-02T08:22:18;23.40;64.10
44517;DHT22;30223;17.182;-96.766;2023-07-02T08:24:45;23.40;64.10
44517;DHT22;30223;17.182;-96.766;2023-07-02T08:27:16;23.40;64.10
44517;DHT22;30223;17.182;-96.766;2023-07-02T08:29:48;23.40;64.10
44517;DHT22;30223;17.182;-96.766;2023-07-02T08:32:15;23.40;64.10
44517;DHT22;30223;17.182;-96.766;2023-07-02T08:34:42;23.40;64.10
44517;DHT22;30223;17.182;-96.766;2023-07-02T08:37:09;23.40;64.10
44517;DHT22;30223;17.182;-96.766;2023-07-02T08:39:36;23.30;64.10
44517;DHT22;30223;17.182;-96.766;2023-07-02T08:42:06;23.30;64.00
44517;DHT22;30223;17.182;-96.766;2023-07-02T08:44:33;23.30;64.10
44517;DHT22;30223;17.182;-96.766;2023-07-02T08:47:01;23.30;64.10
44517;DHT22;30223;17.182;-96.766;2023-07-02T08:49:28;23.30;64.10
44517;DHT22;30223;17.182;-96.766;2023-07-02T08:51:54;23.20;64.10
44517;DHT22;30223;17.182;-96.766;2023-07-02T08:54:21;23.20;64.10
44517;DHT22;30223;17.182;-96.766;2023-07-02T08:56:48;23.20;64.10
44517;DHT22;30223;17.182;-96.766;2023-07-02T08:59:15;23.20;64.20
44517;DHT22;30223;17.182;-96.766;2023-07-02T09:01:54;23.20;64.20
44517;DHT22;30223;17.182;-96.766;2023-07-02T09:04:25;23.20;64.30
44517;DHT22;30223;17.182;-96.766;2023-07-02T09:09:33;23.10;64.40
44517;DHT22;30223;17.182;-96.766;2023-07-02T09:12:28;23.10;64.50
44517;DHT22;30223;17.182;-96.766;2023-07-02T09:15:03;23.10;64.60
44517;DHT22;30223;17.182;-96.766;2023-07-02T09:17:36;23.10;64.60
44517;DHT22;30223;17.182;-96.766;2023-07-02T09:20:05;23.00;64.50
44517;DHT22;30223;17.182;-96.766;2023-07-02T09:22:35;23.00;64.50
44517;DHT22;30223;17.182;-96.766;2023-07-02T09:25:02;23.00;64.70
44517;DHT22;30223;17.182;-96.766;2023-07-02T09:27:42;23.00;64.60
44517;DHT22;30223;17.182;-96.766;2023-07-02T09:30:13;23.00;64.60
44517;DHT22;30223;17.182;-96.766;2023-07-02T09:32:45;22.90;64.50
44517;DHT22;30223;17.182;-96.766;2023-07-02T09:35:13;23.00;64.50
44517;DHT22;30223;17.182;-96.766;2023-07-02T09:37:43;23.00;64.60
44517;DHT22;30223;17.182;-96.766;2023-07-02T09:40:10;23.00;64.50
44517;DHT22;30223;17.182;-96.766;2023-07-02T09:42:39;23.00;64.50
44517;DHT22;30223;17.182;-96.766;2023-07-02T09:45:10;22.90;64.40
44517;DHT22;30223;17.182;-96.766;2023-07-02T09:47:44;22.90;64.40
44517;DHT22;30223;17.182;-96.766;2023-07-02T09:50:15;22.90;64.40
44517;DHT22;30223;17.182;-96.766;2023-07-02T09:52:45;22.90;64.50
44517;DHT22;30223;17.182;-96.766;2023-07-02T09:55:12;22.90;64.40
44517;DHT22;30223;17.182;-96.766;2023-07-02T09:57:40;22.80;64.30
44517;DHT22;30223;17.182;-96.766;2023-07-02T10:00:07;22.80;64.40
44517;DHT22;30223;17.182;-96.766;2023-07-02T10:02:35;22.80;64.40
44517;DHT22;30223;17.182;-96.766;2023-07-02T10:05:02;22.80;64.40
44517;DHT22;30223;17.182;-96.766;2023-07-02T10:07:30;22.80;64.40
44517;DHT22;30223;17.182;-96.766;2023-07-02T10:09:58;22.80;64.40
44517;DHT22;30223;17.182;-96.766;2023-07-02T10:12:29;22.80;64.40
44517;DHT22;30223;17.182;-96.766;2023-07-02T10:14:58;22.70;64.30
44517;DHT22;30223;17.182;-96.766;2023-07-02T10:17:32;22.70;64.30
44517;DHT22;30223;17.182;-96.766;2023-07-02T10:20:01;22.70;64.20
44517;DHT22;30223;17.182;-96.766;2023-07-02T10:22:53;22.70;64.20
44517;DHT22;30223;17.182;-96.766;2023-07-02T10:25:31;22.70;64.20
44517;DHT22;30223;17.182;-96.766;2023-07-02T10:28:19;22.70;64.20
44517;DHT22;30223;17.182;-96.766;2023-07-02T10:30:48;22.70;64.20
44517;DHT22;30223;17.182;-96.766;2023-07-02T10:33:16;22.70;64.20
44517;DHT22;30223;17.182;-96.766;2023-07-02T10:35:46;22.70;64.10
44517;DHT22;30223;17.182;-96.766;2023-07-02T10:38:22;22.70;64.20
44517;DHT22;30223;17.182;-96.766;2023-07-02T10:40:59;22.60;64.10
44517;DHT22;30223;17.182;-96.766;2023-07-02T10:43:31;22.70;64.20
44517;DHT22;30223;17.182;-96.766;2023-07-02T10:46:01;22.60;64.10
44517;DHT22;30223;17.182;-96.766;2023-07-02T10:48:29;22.60;64.10
44517;DHT22;30223;17.182;-96.766;2023-07-02T10:50:55;22.60;64.10
44517;DHT22;30223;17.182;-96.766;2023-07-02T10:53:23;22.60;64.10
44517;DHT22;30223;17.182;-96.766;2023-07-02T10:55:57;22.60;64.00
44517;DHT22;30223;17.182;-96.766;2023-07-02T10:58:25;22.60;64.00
44517;DHT22;30223;17.182;-96.766;2023-07-02T11:00:52;22.60;64.00
44517;DHT22;30223;17.182;-96.766;2023-07-02T11:03:20;22.60;63.90
44517;DHT22;30223;17.182;-96.766;2023-07-02T11:05:48;22.50;63.90
44517;DHT22;30223;17.182;-96.766;2023-07-02T11:08:15;22.60;64.00
44517;DHT22;30223;17.182;-96.766;2023-07-02T11:10:42;22.60;63.90
44517;DHT22;30223;17.182;-96.766;2023-07-02T11:13:17;22.50;63.90
44517;DHT22;30223;17.182;-96.766;2023-07-02T11:15:45;22.50;63.80
44517;DHT22;30223;17.182;-96.766;2023-07-02T11:18:18;22.50;63.80
44517;DHT22;30223;17.182;-96.766;2023-07-02T11:20:48;22.50;63.80
44517;DHT22;30223;17.182;-96.766;2023-07-02T11:23:22;22.40;63.70
44517;DHT22;30223;17.182;-96.766;2023-07-02T11:28:24;22.40;63.70
44517;DHT22;30223;17.182;-96.766;2023-07-02T11:30:51;22.40;63.70
44517;DHT22;30223;17.182;-96.766;2023-07-02T11:33:18;22.40;63.70
44517;DHT22;30223;17.182;-96.766;2023-07-02T11:35:44;22.40;63.70
44517;DHT22;30223;17.182;-96.766;2023-07-02T11:38:11;22.40;63.70
44517;DHT22;30223;17.182;-96.766;2023-07-02T11:40:38;22.40;63.70
44517;DHT22;30223;17.182;-96.766;2023-07-02T11:43:06;22.40;63.70
44517;DHT22;30223;17.182;-96.766;2023-07-02T11:45:32;22.30;63.60
44517;DHT22;30223;17.182;-96.766;2023-07-02T11:47:59;22.30;63.60
44517;DHT22;30223;17.182;-96.766;2023-07-02T11:50:26;22.30;63.50
44517;DHT22;30223;17.182;-96.766;2023-07-02T11:52:53;22.30;63.50
44517;DHT22;30223;17.182;-96.766;2023-07-02T11:55:20;22.30;63.50
44517;DHT22;30223;17.182;-96.766;2023-07-02T11:57:47;22.30;63.60
44517;DHT22;30223;17.182;-96.766;2023-07-02T12:00:15;22.30;63.60
44517;DHT22;30223;17.182;-96.766;2023-07-02T12:02:42;22.20;63.60
44517;DHT22;30223;17.182;-96.766;2023-07-02T12:05:09;22.20;63.60
44517;DHT22;30223;17.182;-96.766;2023-07-02T12:07:36;22.20;63.60
44517;DHT22;30223;17.182;-96.766;2023-07-02T12:10:02;22.20;63.60
44517;DHT22;30223;17.182;-96.766;2023-07-02T12:12:29;22.30;63.60
44517;DHT22;30223;17.182;-96.766;2023-07-02T12:14:56;22.30;63.60
44517;DHT22;30223;17.182;-96.766;2023-07-02T12:17:23;22.20;63.60
44517;DHT22;30223;17.182;-96.766;2023-07-02T12:19:51;22.20;63.60
44517;DHT22;30223;17.182;-96.766;2023-07-02T12:22:18;22.20;63.60
44517;DHT22;30223;17.182;-96.766;2023-07-02T12:24:48;22.20;63.60
44517;DHT22;30223;17.182;-96.766;2023-07-02T12:27:16;22.20;63.60
44517;DHT22;30223;17.182;-96.766;2023-07-02T12:29:43;22.20;63.50
44517;DHT22;30223;17.182;-96.766;2023-07-02T12:32:09;22.20;63.50
44517;DHT22;30223;17.182;-96.766;2023-07-02T12:34:36;22.20;63.50
44517;DHT22;30223;17.182;-96.766;2023-07-02T12:37:03;22.20;63.50
44517;DHT22;30223;17.182;-96.766;2023-07-02T12:39:30;22.20;63.50
44517;DHT22;30223;17.182;-96.766;2023-07-02T12:41:57;22.20;63.50
44517;DHT22;30223;17.182;-96.766;2023-07-02T12:44:24;22.20;63.50
44517;DHT22;30223;17.182;-96.766;2023-07-02T12:46:50;22.20;63.50
44517;DHT22;30223;17.182;-96.766;2023-07-02T12:49:17;22.10;63.50
44517;DHT22;30223;17.182;-96.766;2023-07-02T12:51:44;22.10;63.50
44517;DHT22;30223;17.182;-96.766;2023-07-02T12:54:11;22.10;63.50
44517;DHT22;30223;17.182;-96.766;2023-07-02T12:56:37;22.10;64.00
44517;DHT22;30223;17.182;-96.766;2023-07-02T12:59:04;22.10;63.50
44517;DHT22;30223;17.182;-96.766;2023-07-02T13:01:31;22.10;63.50
44517;DHT22;30223;17.182;-96.766;2023-07-02T13:03:58;22.10;63.50
44517;DHT22;30223;17.182;-96.766;2023-07-02T13:06:25;22.10;63.50
44517;DHT22;30223;17.182;-96.766;2023-07-02T13:08:52;22.10;63.50
44517;DHT22;30223;17.182;-96.766;2023-07-02T13:11:19;22.10;63.50
44517;DHT22;30223;17.182;-96.766;2023-07-02T13:13:45;22.10;63.50
44517;DHT22;30223;17.182;-96.766;2023-07-02T13:16:12;22.10;63.50
44517;DHT22;30223;17.182;-96.766;2023-07-02T13:18:39;22.10;63.50
44517;DHT22;30223;17.182;-96.766;2023-07-02T13:21:06;22.10;63.50
44517;DHT22;30223;17.182;-96.766;2023-07-02T13:23:33;22.10;63.60
44517;DHT22;30223;17.182;-96.766;2023-07-02T13:25:59;22.10;63.60
44517;DHT22;30223;17.182;-96.766;2023-07-02T13:28:26;22.10;63.60
44517;DHT22;30223;17.182;-96.766;2023-07-02T13:30:54;22.10;63.60
44517;DHT22;30223;17.182;-96.766;2023-07-02T13:33:21;22.00;63.60
44517;DHT22;30223;17.182;-96.766;2023-07-02T13:35:47;22.10;63.60
44517;DHT22;30223;17.182;-96.766;2023-07-02T13:38:15;22.10;63.70
44517;DHT22;30223;17.182;-96.766;2023-07-02T13:40:42;22.10;63.70
44517;DHT22;30223;17.182;-96.766;2023-07-02T13:43:08;22.00;63.70
44517;DHT22;30223;17.182;-96.766;2023-07-02T13:45:35;22.00;63.70
44517;DHT22;30223;17.182;-96.766;2023-07-02T13:48:02;22.00;63.70
44517;DHT22;30223;17.182;-96.766;2023-07-02T13:50:29;22.00;63.80
44517;DHT22;30223;17.182;-96.766;2023-07-02T13:52:55;22.10;63.90
44517;DHT22;30223;17.182;-96.766;2023-07-02T13:55:22;22.00;63.80
44517;DHT22;30223;17.182;-96.766;2023-07-02T13:57:57;22.00;63.80
44517;DHT22;30223;17.182;-96.766;2023-07-02T14:00:27;22.00;63.80
44517;DHT22;30223;17.182;-96.766;2023-07-02T14:02:54;22.00;63.80
44517;DHT22;30223;17.182;-96.766;2023-07-02T14:05:22;22.00;63.90
44517;DHT22;30223;17.182;-96.766;2023-07-02T14:07:49;22.00;64.00
44517;DHT22;30223;17.182;-96.766;2023-07-02T14:10:15;22.00;64.00
44517;DHT22;30223;17.182;-96.766;2023-07-02T14:12:42;22.00;64.10
44517;DHT22;30223;17.182;-96.766;2023-07-02T14:15:10;22.00;64.10
44517;DHT22;30223;17.182;-96.766;2023-07-02T14:17:37;22.00;64.10
44517;DHT22;30223;17.182;-96.766;2023-07-02T14:20:05;22.00;64.20
44517;DHT22;30223;17.182;-96.766;2023-07-02T14:22:32;22.00;64.20
44517;DHT22;30223;17.182;-96.766;2023-07-02T14:24:59;22.00;64.20
44517;DHT22;30223;17.182;-96.766;2023-07-02T14:27:25;22.00;64.30
44517;DHT22;30223;17.182;-96.766;2023-07-02T14:29:52;22.00;64.20
44517;DHT22;30223;17.182;-96.766;2023-07-02T14:32:19;22.00;64.30
44517;DHT22;30223;17.182;-96.766;2023-07-02T14:34:45;22.00;64.30
44517;DHT22;30223;17.182;-96.766;2023-07-02T14:37:12;22.00;64.30
44517;DHT22;30223;17.182;-96.766;2023-07-02T14:39:39;22.00;64.30
44517;DHT22;30223;17.182;-96.766;2023-07-02T14:42:06;22.00;64.30
44517;DHT22;30223;17.182;-96.766;2023-07-02T14:44:33;22.00;64.40
44517;DHT22;30223;17.182;-96.766;2023-07-02T14:47:00;22.00;64.40
44517;DHT22;30223;17.182;-96.766;2023-07-02T14:49:26;22.00;64.50
44517;DHT22;30223;17.182;-96.766;2023-07-02T14:51:53;22.00;64.50
44517;DHT22;30223;17.182;-96.766;2023-07-02T14:54:20;22.00;64.50
44517;DHT22;30223;17.182;-96.766;2023-07-02T14:56:47;22.00;64.50
44517;DHT22;30223;17.182;-96.766;2023-07-02T14:59:13;22.00;64.60
44517;DHT22;30223;17.182;-96.766;2023-07-02T15:01:40;22.00;64.70
44517;DHT22;30223;17.182;-96.766;2023-07-02T15:04:07;22.00;64.80
44517;DHT22;30223;17.182;-96.766;2023-07-02T15:06:34;22.00;64.80
44517;DHT22;30223;17.182;-96.766;2023-07-02T15:09:01;22.00;64.70
44517;DHT22;30223;17.182;-96.766;2023-07-02T15:11:28;22.10;65.10
44517;DHT22;30223;17.182;-96.766;2023-07-02T15:13:55;22.10;65.30
44517;DHT22;30223;17.182;-96.766;2023-07-02T15:16:24;22.10;65.30